createdAt,value
2023-03-12T00:00:59.120Z,3.80
2023-03-12T00:06:10.234Z,3.80
2023-03-12T00:11:17.367Z,3.70
2023-03-12T00:16:20.455Z,3.60
2023-03-12T00:21:24.203Z,3.60
2023-03-12T00:26:27.780Z,3.50
2023-03-12T00:31:31.919Z,3.40
2023-03-12T00:36:34.366Z,3.40
2023-03-12T00:41:37.887Z,3.30
2023-03-12T00:46:40.152Z,3.30
2023-03-12T00:51:42.373Z,3.20
2023-03-12T00:56:45.999Z,3.30
2023-03-12T01:01:48.438Z,3.30
2023-03-12T01:06:50.652Z,3.30
2023-03-12T01:11:54.319Z,3.30
2023-03-12T01:16:56.457Z,3.30
2023-03-12T01:21:58.565Z,3.20
2023-03-12T01:27:02.093Z,3.20
2023-03-12T01:32:04.694Z,3.20
2023-03-12T01:37:07.485Z,3.10
2023-03-12T01:42:11.189Z,3.00
2023-03-12T01:47:13.327Z,3.00
2023-03-12T01:52:18.457Z,2.90
2023-03-12T01:57:26.909Z,2.90
2023-03-12T02:02:29.411Z,2.90
2023-03-12T02:07:31.514Z,2.90
2023-03-12T02:12:35.151Z,2.80
2023-03-12T02:17:38.472Z,2.80
2023-03-12T02:22:44.701Z,2.70
2023-03-12T02:27:48.950Z,2.70
2023-03-12T02:32:52.059Z,2.70
2023-03-12T02:37:55.696Z,2.70
2023-03-12T02:43:00.159Z,2.70
2023-03-12T02:48:02.464Z,2.70
2023-03-12T02:53:04.649Z,2.60
2023-03-12T02:58:08.449Z,2.60
2023-03-12T03:03:10.524Z,2.60
2023-03-12T03:08:12.586Z,2.50
2023-03-12T03:13:16.081Z,2.60
2023-03-12T03:18:18.227Z,2.50
2023-03-12T03:23:20.345Z,2.50
2023-03-12T03:28:25.531Z,2.50
2023-03-12T03:33:27.874Z,2.50
2023-03-12T03:38:31.274Z,2.60
2023-03-12T03:43:34.846Z,2.60
2023-03-12T03:48:36.978Z,2.60
2023-03-12T03:53:39.154Z,2.60
2023-03-12T03:58:43.210Z,2.60
2023-03-12T04:03:45.333Z,2.50
2023-03-12T04:08:47.544Z,2.40
2023-03-12T04:13:51.249Z,2.30
2023-03-12T04:18:53.980Z,2.30
2023-03-12T04:23:56.044Z,2.20
2023-03-12T04:29:00.625Z,2.20
2023-03-12T04:34:02.732Z,2.20
2023-03-12T04:39:05.379Z,2.20
2023-03-12T04:44:10.928Z,2.20
2023-03-12T04:49:14.834Z,2.20
2023-03-12T04:54:16.932Z,2.30
2023-03-12T04:59:20.416Z,2.30
2023-03-12T05:04:22.595Z,2.30
2023-03-12T05:09:24.777Z,2.30
2023-03-12T05:14:28.354Z,2.30
2023-03-12T05:19:30.416Z,2.30
2023-03-12T05:24:38.734Z,2.30
2023-03-12T05:29:42.209Z,2.40
2023-03-12T05:34:44.335Z,2.50
2023-03-12T05:39:46.473Z,2.50
2023-03-12T05:44:50.025Z,2.50
2023-03-12T05:49:52.794Z,2.60
2023-03-12T05:54:55.025Z,2.60
2023-03-12T05:59:58.599Z,2.60
2023-03-12T06:05:01.884Z,2.60
2023-03-12T06:10:04.445Z,2.60
2023-03-12T06:15:09.305Z,2.70
2023-03-12T06:20:12.143Z,2.70
2023-03-12T06:25:14.656Z,2.70
2023-03-12T06:30:18.638Z,2.70
2023-03-12T06:35:21.099Z,2.70
2023-03-12T06:40:23.300Z,2.70
2023-03-12T06:45:26.821Z,2.80
2023-03-12T06:50:28.928Z,2.90
2023-03-12T06:55:33.782Z,3.00
2023-03-12T07:00:37.417Z,3.00
2023-03-12T07:05:39.536Z,3.10
2023-03-12T07:10:42.172Z,3.10
2023-03-12T07:15:46.433Z,3.10
2023-03-12T07:20:48.573Z,3.10
2023-03-12T07:25:51.945Z,3.20
2023-03-12T07:31:01.061Z,3.30
2023-03-12T07:36:03.567Z,3.30
2023-03-12T07:41:05.712Z,3.40
2023-03-12T07:46:09.240Z,3.50
2023-03-12T07:51:13.158Z,3.60
2023-03-12T07:56:15.388Z,3.70
2023-03-12T08:01:19.058Z,3.90
2023-03-12T08:06:21.250Z,4.20
2023-03-12T08:11:23.348Z,4.60
2023-03-12T08:16:26.986Z,4.90
2023-03-12T08:21:29.128Z,5.10
2023-03-12T08:26:31.321Z,5.20
2023-03-12T08:31:34.917Z,5.30
2023-03-12T08:36:37.072Z,5.30
2023-03-12T08:41:39.252Z,5.30
2023-03-12T08:46:42.913Z,5.30
2023-03-12T08:51:45.142Z,5.30
2023-03-12T08:56:51.407Z,5.30
2023-03-12T09:01:54.977Z,5.30
2023-03-12T09:06:57.108Z,5.30
2023-03-12T09:11:59.200Z,5.30
2023-03-12T09:17:03.074Z,5.30
2023-03-12T09:22:05.296Z,5.40
2023-03-12T09:27:07.486Z,5.50
2023-03-12T09:32:11.026Z,5.60
2023-03-12T09:37:13.127Z,5.70
2023-03-12T09:42:23.978Z,5.80
2023-03-12T09:47:32.046Z,5.90
2023-03-12T09:52:44.453Z,6.00
2023-03-12T09:57:48.426Z,6.10
2023-03-12T10:03:09.398Z,6.20
2023-03-12T10:08:25.085Z,6.20
2023-03-12T10:13:44.227Z,6.10
2023-03-12T10:19:12.790Z,6.10
2023-03-12T10:24:30.296Z,6.00
2023-03-12T10:29:37.421Z,5.90
2023-03-12T10:34:43.434Z,5.80
2023-03-12T10:39:46.105Z,5.70
2023-03-12T10:44:52.410Z,5.60
2023-03-12T10:50:11.032Z,5.40
2023-03-12T10:55:23.310Z,5.40
2023-03-12T11:00:27.627Z,5.30
2023-03-12T11:05:33.345Z,5.30
2023-03-12T11:10:43.088Z,5.30
2023-03-12T11:15:45.244Z,5.20
2023-03-12T11:20:50.802Z,5.10
2023-03-12T11:25:56.650Z,5.00
2023-03-12T11:30:59.743Z,4.90
2023-03-12T11:36:25.554Z,4.80
2023-03-12T11:41:41.008Z,4.70
2023-03-12T11:46:56.901Z,4.60
2023-03-12T11:52:06.174Z,4.60
2023-03-12T11:57:19.480Z,4.60
2023-03-12T12:02:46.654Z,4.60
2023-03-12T12:07:59.042Z,4.60
2023-03-12T12:13:10.927Z,4.70
2023-03-12T12:18:33.555Z,4.70
2023-03-12T12:23:50.297Z,4.70
2023-03-12T12:29:18.492Z,4.80
2023-03-12T12:34:41.141Z,4.80
2023-03-12T12:39:49.512Z,4.80
2023-03-12T12:44:53.708Z,4.80
2023-03-12T12:49:59.222Z,4.90
2023-03-12T12:55:12.604Z,4.90
2023-03-12T13:00:33.589Z,5.00
2023-03-12T13:05:48.381Z,5.10
2023-03-12T13:11:02.140Z,5.10
2023-03-12T13:16:30.492Z,5.20
2023-03-12T13:21:39.874Z,5.30
2023-03-12T13:26:53.850Z,5.40
2023-03-12T13:31:56.574Z,5.50
2023-03-12T13:37:01.410Z,5.60
2023-03-12T13:42:36.687Z,5.60
2023-03-12T13:47:43.352Z,5.70
2023-03-12T13:52:49.650Z,5.80
2023-03-12T13:57:56.684Z,5.80
2023-03-12T14:03:00.733Z,5.90
2023-03-12T14:08:21.733Z,6.00
2023-03-12T14:14:03.774Z,6.10
2023-03-12T14:19:06.792Z,6.10
2023-03-12T14:24:18.775Z,6.20
2023-03-12T14:29:27.941Z,6.30
2023-03-12T14:34:35.563Z,6.40
2023-03-12T14:39:43.814Z,6.60
2023-03-12T14:44:55.056Z,6.70
2023-03-12T14:49:58.621Z,6.90
2023-03-12T14:55:02.339Z,7.00
2023-03-12T15:00:08.189Z,7.10
2023-03-12T15:05:17.017Z,7.30
2023-03-12T15:10:23.275Z,7.50
2023-03-12T15:15:37.292Z,7.70
2023-03-12T15:20:40.548Z,7.90
2023-03-12T15:25:42.882Z,8.10
2023-03-12T15:30:46.438Z,8.30
2023-03-12T15:36:01.002Z,8.50
2023-03-12T15:41:08.333Z,8.60
2023-03-12T15:46:12.619Z,8.80
2023-03-12T15:51:26.313Z,9.00
2023-03-12T15:56:30.309Z,9.00
2023-03-12T16:01:46.776Z,9.20
2023-03-12T16:06:50.196Z,9.30
2023-03-12T16:11:53.789Z,9.40
2023-03-12T16:16:57.598Z,9.50
2023-03-12T16:21:59.905Z,9.60
2023-03-12T16:27:02.653Z,9.60
2023-03-12T16:32:13.362Z,9.70
2023-03-12T16:37:15.588Z,9.70
2023-03-12T16:42:26.037Z,9.80
2023-03-12T16:47:30.823Z,9.90
2023-03-12T16:52:36.102Z,9.90
2023-03-12T16:57:41.707Z,10.00
2023-03-12T17:02:45.644Z,10.10
2023-03-12T17:07:47.767Z,10.10
2023-03-12T17:12:50.882Z,10.10
2023-03-12T17:17:54.614Z,10.20
2023-03-12T17:22:57.119Z,10.20
2023-03-12T17:27:59.662Z,10.20
2023-03-12T17:33:05.189Z,10.20
2023-03-12T17:38:08.007Z,10.20
2023-03-12T17:43:10.191Z,10.20
2023-03-12T17:48:13.928Z,10.20
2023-03-12T17:53:16.414Z,10.20
2023-03-12T17:58:18.987Z,10.20
2023-03-12T18:03:22.746Z,10.20
2023-03-12T18:08:24.992Z,10.20
2023-03-12T18:13:27.529Z,10.10
2023-03-12T18:18:31.633Z,10.10
2023-03-12T18:23:33.994Z,10.10
2023-03-12T18:28:36.180Z,10.10
2023-03-12T18:33:39.980Z,10.10
2023-03-12T18:38:42.254Z,10.10
2023-03-12T18:43:44.553Z,10.10
2023-03-12T18:48:49.121Z,10.10
2023-03-12T18:53:52.194Z,10.10
2023-03-12T18:58:54.526Z,10.10
2023-03-12T19:03:59.479Z,10.10
2023-03-12T19:09:01.770Z,10.10
2023-03-12T19:14:04.073Z,10.10
2023-03-12T19:19:07.917Z,10.10
2023-03-12T19:24:10.106Z,10.10
2023-03-12T19:29:12.353Z,10.00
2023-03-12T19:34:16.097Z,10.00
2023-03-12T19:39:21.606Z,9.90
2023-03-12T19:44:24.157Z,9.90
2023-03-12T19:49:28.163Z,9.80
2023-03-12T19:54:30.517Z,9.80
2023-03-12T19:59:32.653Z,9.70
2023-03-12T20:04:36.545Z,9.70
2023-03-12T20:09:38.959Z,9.70
2023-03-12T20:14:42.773Z,9.70
2023-03-12T20:19:46.793Z,9.70
2023-03-12T20:24:49.078Z,9.80
2023-03-12T20:29:51.282Z,9.80
2023-03-12T20:34:55.085Z,9.90
2023-03-12T20:39:57.252Z,9.90
2023-03-12T20:44:59.362Z,10.00
2023-03-12T20:50:03.098Z,10.00
2023-03-12T20:55:06.108Z,10.00
2023-03-12T21:00:09.799Z,10.10
2023-03-12T21:05:13.350Z,10.10
2023-03-12T21:10:15.711Z,10.10
2023-03-12T21:15:18.080Z,10.20
2023-03-12T21:20:21.821Z,10.20
2023-03-12T21:25:24.013Z,10.30
2023-03-12T21:30:26.237Z,10.30
2023-03-12T21:35:29.880Z,10.40
2023-03-12T21:40:32.076Z,10.40
2023-03-12T21:45:34.641Z,10.50
2023-03-12T21:50:38.217Z,10.50
2023-03-12T21:55:40.357Z,10.50
2023-03-12T22:00:42.488Z,10.60
2023-03-12T22:05:50.851Z,10.60
2023-03-12T22:10:53.010Z,10.70
2023-03-12T22:15:56.789Z,10.70
2023-03-12T22:21:01.702Z,10.70
2023-03-12T22:26:05.156Z,10.80
2023-03-12T22:31:09.123Z,10.80
2023-03-12T22:36:14.025Z,10.90
2023-03-12T22:41:17.959Z,10.90
2023-03-12T22:46:22.756Z,11.00
2023-03-12T22:51:27.979Z,11.00
2023-03-12T22:56:30.123Z,11.10
2023-03-12T23:01:32.232Z,11.10
2023-03-12T23:06:35.784Z,11.10
2023-03-12T23:11:37.962Z,11.10
2023-03-12T23:16:40.056Z,11.20
2023-03-12T23:21:43.670Z,11.20
2023-03-12T23:26:45.798Z,11.30
2023-03-12T23:31:47.992Z,11.30
2023-03-12T23:36:51.542Z,11.30
2023-03-12T23:41:53.712Z,11.30
2023-03-12T23:46:55.921Z,11.30
2023-03-12T23:51:59.460Z,11.40
2023-03-12T23:57:01.721Z,11.40
